| time (UTC) | temp C | wind direction | speed KPH | gust KPH | rain 1hr cm | rain 24hr cm | rain mn cm | humidity % | barometer mb |
| 20260507224515 | 22 | 242 | 14.5 | 29.0 | 0.00 | 0.00 | 0.00 | 13 | 1015.0 |
| 20260507223009 | 21 | 278 | 14.5 | 24.1 | 0.00 | 0.00 | 0.00 | 14 | 1015.1 |
| 20260507221506 | 21 | 232 | 12.9 | 24.1 | 0.00 | 0.00 | 0.00 | 16 | 1015.3 |
| 20260507220003 | 21 | 242 | 17.7 | 25.7 | 0.00 | 0.00 | 0.00 | 18 | 1015.5 |
| 20260507214501 | 20 | 238 | 6.4 | 19.3 | 0.00 | 0.00 | 0.00 | 21 | 1015.6 |
| 20260507213108 | 20 | 198 | 12.9 | 19.3 | 0.00 | 0.00 | 0.00 | 24 | 1015.8 |
| 20260507211557 | 20 | 229 | 17.7 | 29.0 | 0.00 | 0.00 | 0.00 | 26 | 1015.9 |
| 20260507210056 | 20 | 230 | 16.1 | 29.0 | 0.00 | 0.00 | 0.00 | 26 | 1016.0 |
| 20260507204601 | 20 | 252 | 16.1 | 29.0 | 0.00 | 0.00 | 0.00 | 26 | 1016.1 |
| 20260507203052 | 19 | 233 | 17.7 | 27.4 | 0.00 | 0.00 | 0.00 | 29 | 1016.2 |
| 20260507201549 | 18 | 233 | 20.9 | 29.0 | 0.00 | 0.00 | 0.00 | 30 | 1016.3 |
| 20260507200047 | 18 | 239 | 20.9 | 30.6 | 0.00 | 0.00 | 0.00 | 36 | 1016.5 |
| 20260507194547 | 18 | 235 | 17.7 | 32.2 | 0.00 | 0.00 | 0.00 | 36 | 1016.5 |
| 20260507193043 | 18 | 254 | 19.3 | 33.8 | 0.00 | 0.00 | 0.00 | 36 | 1016.6 |
| 20260507191541 | 17 | 248 | 16.1 | 27.4 | 0.00 | 0.00 | 0.00 | 41 | 1016.7 |
| 20260507190042 | 17 | 235 | 19.3 | 30.6 | 0.00 | 0.00 | 0.00 | 41 | 1016.8 |
| 20260507184539 | 17 | 194 | 14.5 | 27.4 | 0.00 | 0.00 | 0.00 | 42 | 1016.9 |
| 20260507183041 | 17 | 239 | 19.3 | 29.0 | 0.00 | 0.00 | 0.00 | 45 | 1016.9 |
| 20260507181534 | 16 | 227 | 20.9 | 29.0 | 0.00 | 0.00 | 0.00 | 44 | 1017.0 |
| 20260507180034 | 16 | 226 | 17.7 | 27.4 | 0.00 | 0.00 | 0.00 | 49 | 1017.0 |
| 20260507174536 | 16 | 234 | 24.1 | 30.6 | 0.00 | 0.00 | 0.00 | 49 | 1017.1 |
| 20260507173033 | 15 | 232 | 24.1 | 30.6 | 0.00 | 0.00 | 0.00 | 50 | 1017.1 |
| 20260507171525 | 15 | 230 | 24.1 | 29.0 | 0.00 | 0.00 | 0.00 | 53 | 1017.2 |
| 20260507170023 | 15 | 245 | 27.4 | 37.0 | 0.00 | 0.00 | 0.00 | 54 | 1017.2 |
| 20260507164523 | 14 | 238 | 20.9 | 32.2 | 0.00 | 0.00 | 0.00 | 59 | 1017.2 |
| 20260507163018 | 13 | 238 | 14.5 | 25.7 | 0.00 | 0.00 | 0.00 | 63 | 1017.2 |
| 20260507161516 | 13 | 221 | 16.1 | 25.7 | 0.00 | 0.00 | 0.00 | 65 | 1017.1 |
| 20260507160014 | 13 | 219 | 22.5 | 35.4 | 0.00 | 0.00 | 0.00 | 67 | 1017.2 |
| 20260507154509 | 12 | 236 | 25.7 | 37.0 | 0.00 | 0.00 | 0.00 | 69 | 1017.2 |
| 20260507153006 | 12 | 241 | 30.6 | 37.0 | 0.00 | 0.00 | 0.00 | 71 | 1017.0 |
| 20260507151504 | 12 | 234 | 29.0 | 38.6 | 0.00 | 0.00 | 0.00 | 73 | 1017.0 |
| 20260507150002 | 11 | 229 | 22.5 | 30.6 | 0.00 | 0.00 | 0.00 | 78 | 1017.0 |
| 20260507144602 | 10 | 219 | 16.1 | 29.0 | 0.00 | 0.00 | 0.00 | 81 | 1016.9 |
| 20260507143102 | 10 | 209 | 24.1 | 32.2 | 0.00 | 0.00 | 0.00 | 80 | 1016.8 |
| 20260507141602 | -17 | 0.0 | 0.0 | 0.00 | 0.00 | 0.00 | 1016.9 | ||
| 20260507140108 | -17 | 0.0 | 0.0 | 0.00 | 0.00 | 0.00 | 1016.4 | ||
| 20260507134547 | -17 | 0.0 | 0.0 | 0.00 | 0.00 | 0.00 | 1016.4 | ||
| 20260507133042 | -17 | 0.0 | 0.0 | 0.00 | 0.00 | 0.00 | 1016.5 | ||
| 20260507131539 | -17 | 0.0 | 0.0 | 0.00 | 0.00 | 0.00 | 1016.2 | ||
| 20260507130043 | -17 | 0.0 | 0.0 | 0.00 | 0.00 | 0.00 | 1016.1 | ||
| 20260507124530 | -17 | 0.0 | 0.0 | 0.00 | 0.00 | 0.00 | 1016.2 | ||
| 20260507123029 | -17 | 0.0 | 0.0 | 0.00 | 0.00 | 0.00 | 1016.3 | ||
| 20260507121521 | -17 | 0.0 | 0.0 | 0.00 | 0.00 | 0.00 | 1016.4 | ||
| 20260507120017 | -17 | 0.0 | 0.0 | 0.00 | 0.00 | 0.00 | 1016.4 | ||
| 20260507114512 | -17 | 0.0 | 0.0 | 0.00 | 0.00 | 0.00 | 1016.4 | ||
| 20260507113007 | -17 | 0.0 | 0.0 | 0.00 | 0.00 | 0.00 | 1016.0 | ||
| 20260507111504 | -17 | 0.0 | 0.0 | 0.00 | 0.00 | 0.00 | 1016.1 | ||
| 20260507104559 | 10 | 186 | 9.7 | 25.7 | 0.00 | 0.00 | 0.00 | 81 | 1016.2 |
| 20260507103056 | 10 | 218 | 14.5 | 30.6 | 0.00 | 0.00 | 0.00 | 80 | 1016.2 |
| 20260507101553 | 11 | 246 | 20.9 | 30.6 | 0.00 | 0.00 | 0.00 | 79 | 1016.1 |
| 20260507100051 | 11 | 219 | 17.7 | 29.0 | 0.00 | 0.00 | 0.00 | 79 | 1016.3 |
| 20260507094553 | 11 | 227 | 24.1 | 32.2 | 0.00 | 0.00 | 0.00 | 77 | 1016.3 |
| 20260507093048 | 11 | 248 | 22.5 | 37.0 | 0.00 | 0.00 | 0.00 | 76 | 1016.1 |
| 20260507091547 | 11 | 241 | 22.5 | 32.2 | 0.00 | 0.00 | 0.00 | 75 | 1016.1 |
| 20260507090044 | 11 | 242 | 22.5 | 30.6 | 0.00 | 0.00 | 0.00 | 74 | 1016.2 |
| 20260507084551 | 11 | 250 | 24.1 | 37.0 | 0.00 | 0.00 | 0.00 | 74 | 1016.2 |
| 20260507083047 | 11 | 219 | 11.3 | 24.1 | 0.00 | 0.00 | 0.00 | 72 | 1016.2 |
| 20260507081538 | 11 | 247 | 16.1 | 24.1 | 0.00 | 0.00 | 0.00 | 73 | 1016.1 |
| 20260507080040 | 11 | 234 | 17.7 | 25.7 | 0.00 | 0.00 | 0.00 | 71 | 1016.1 |
| 20260507074540 | 12 | 226 | 20.9 | 30.6 | 0.00 | 0.00 | 0.00 | 70 | 1016.0 |
| 20260507073032 | 11 | 234 | 19.3 | 24.1 | 0.00 | 0.00 | 0.00 | 71 | 1016.0 |
| 20260507071539 | 11 | 224 | 14.5 | 25.7 | 0.00 | 0.00 | 0.00 | 69 | 1015.9 |
| 20260507070025 | 12 | 226 | 19.3 | 29.0 | 0.00 | 0.00 | 0.00 | 67 | 1015.9 |
| 20260507064523 | 12 | 233 | 12.9 | 22.5 | 0.00 | 0.00 | 0.00 | 67 | 1016.0 |
| 20260507063026 | 12 | 232 | 14.5 | 27.4 | 0.00 | 0.00 | 0.00 | 66 | 1015.8 |
| 20260507061522 | 11 | 232 | 12.9 | 16.1 | 0.00 | 0.00 | 0.00 | 69 | 1015.7 |
| 20260507060020 | 12 | 223 | 12.9 | 19.3 | 0.00 | 0.00 | 0.00 | 67 | 1015.8 |
| 20260507054520 | 12 | 213 | 17.7 | 19.3 | 0.00 | 0.00 | 0.00 | 66 | 1015.9 |
| 20260507053019 | 13 | 207 | 6.4 | 9.7 | 0.00 | 0.00 | 0.00 | 62 | 1016.0 |
| 20260507051518 | 13 | 223 | 8.0 | 24.1 | 0.00 | 0.00 | 0.00 | 60 | 1015.9 |
| 20260507050017 | 14 | 269 | 19.3 | 30.6 | 0.00 | 0.00 | 0.00 | 58 | 1015.8 |
| 20260507044516 | 14 | 243 | 20.9 | 27.4 | 0.00 | 0.00 | 0.00 | 57 | 1015.7 |
| 20260507043016 | 15 | 239 | 19.3 | 30.6 | 0.00 | 0.00 | 0.00 | 56 | 1015.7 |
| 20260507041515 | 16 | 256 | 25.7 | 35.4 | 0.00 | 0.00 | 0.00 | 55 | 1015.4 |
| 20260507040016 | 16 | 262 | 22.5 | 40.2 | 0.00 | 0.00 | 0.00 | 54 | 1015.3 |
| 20260507034518 | 16 | 250 | 27.4 | 43.5 | 0.00 | 0.00 | 0.00 | 53 | 1015.0 |
| 20260507033014 | 17 | 262 | 27.4 | 41.8 | 0.00 | 0.00 | 0.00 | 53 | 1014.7 |
| 20260507031513 | 17 | 254 | 30.6 | 40.2 | 0.00 | 0.00 | 0.00 | 52 | 1014.4 |
| 20260507030014 | 18 | 250 | 27.4 | 40.2 | 0.00 | 0.00 | 0.00 | 50 | 1014.5 |
| 20260507024513 | 18 | 257 | 29.0 | 37.0 | 0.00 | 0.00 | 0.00 | 47 | 1014.2 |
| 20260507023012 | 19 | 243 | 29.0 | 40.2 | 0.00 | 0.00 | 0.00 | 44 | 1014.2 |
| 20260507021515 | 19 | 254 | 30.6 | 41.8 | 0.00 | 0.00 | 0.00 | 43 | 1014.2 |
| 20260507020011 | 20 | 254 | 27.4 | 38.6 | 0.00 | 0.00 | 0.00 | 41 | 1014.1 |
| 20260507014510 | 20 | 262 | 27.4 | 38.6 | 0.00 | 0.00 | 0.00 | 38 | 1014.0 |
| 20260507013010 | 21 | 259 | 27.4 | 37.0 | 0.00 | 0.00 | 0.00 | 36 | 1013.9 |
| 20260507011516 | 21 | 256 | 27.4 | 40.2 | 0.00 | 0.00 | 0.00 | 35 | 1013.9 |
| 20260507010008 | 22 | 253 | 30.6 | 45.1 | 0.00 | 0.00 | 0.00 | 32 | 1014.0 |
| 20260507004511 | 22 | 254 | 25.7 | 37.0 | 0.00 | 0.00 | 0.00 | 32 | 1013.9 |
| 20260507003009 | 23 | 250 | 20.9 | 33.8 | 0.00 | 0.00 | 0.00 | 32 | 1013.8 |
| 20260507001507 | 23 | 249 | 22.5 | 37.0 | 0.00 | 0.00 | 0.00 | 30 | 1013.7 |
| 20260507000006 | 25 | 260 | 24.1 | 33.8 | 0.00 | 0.00 | 0.00 | 29 | 1013.7 |
| 20260506234509 | 24 | 258 | 32.2 | 45.1 | 0.00 | 0.00 | 0.00 | 26 | 1013.9 |
| 20260506233005 | 23 | 268 | 20.9 | 32.2 | 0.00 | 0.00 | 0.00 | 28 | 1013.9 |
| 20260506231503 | 24 | 289 | 20.9 | 37.0 | 0.00 | 0.00 | 0.00 | 27 | 1013.8 |
| 20260506230003 | 25 | 264 | 27.4 | 41.8 | 0.00 | 0.00 | 0.00 | 25 | 1013.9 |